Time;durP1;ratioP1;P1;durP2;ratioP2;P2;SDS_P1;SDS_P2;PMS_P1;PMS_P2;Temp;Humidity;BMP_temperature;BMP_pressure;BME280_temperature;BME280_humidity;BME280_pressure;Samples;Min_cycle;Max_cycle;Signal;HPM_P1;HPM_P2
2022/08/10 00:02:31;;;;;;;5.65;1.55;;;;;;;17.05;74.40;102536.97;5032391;28;20071;-84
2022/08/10 00:04:56;;;;;;;3.90;2.13;;;;;;;16.94;75.13;102530.63;5041426;28;20029;-83
2022/08/10 00:07:23;;;;;;;5.37;1.80;;;;;;;16.96;75.31;102543.94;5052064;28;20408;-84
2022/08/10 00:09:49;;;;;;;4.43;1.70;;;;;;;16.92;75.22;102537.38;5033890;28;20492;-84
2022/08/10 00:12:14;;;;;;;2.55;1.80;;;;;;;16.81;76.02;102525.66;5032380;28;20025;-84
2022/08/10 00:14:39;;;;;;;1.97;1.50;;;;;;;16.85;75.67;102537.59;5037557;28;20036;-85
2022/08/10 00:17:05;;;;;;;5.57;1.70;;;;;;;16.79;75.50;102527.81;5052136;28;20032;-84
2022/08/10 00:19:30;;;;;;;1.70;1.60;;;;;;;16.78;76.50;102531.56;5050112;28;20028;-84
2022/08/10 00:21:55;;;;;;;2.23;1.80;;;;;;;16.75;76.62;102527.50;5045673;28;20017;-88
2022/08/10 00:24:21;;;;;;;4.63;1.67;;;;;;;16.72;75.91;102519.06;5038016;28;20319;-88
2022/08/10 00:26:46;;;;;;;2.83;1.73;;;;;;;16.75;76.40;102532.09;5031276;28;20665;-87
2022/08/10 00:29:11;;;;;;;2.13;1.93;;;;;;;16.60;76.72;102517.38;5031832;28;20515;-88
2022/08/10 00:31:37;;;;;;;3.10;1.87;;;;;;;16.58;77.28;102514.09;5052107;28;20024;-87
2022/08/10 00:34:02;;;;;;;4.50;1.60;;;;;;;16.65;76.77;102527.41;5040013;28;20108;-87
2022/08/10 00:36:27;;;;;;;2.33;1.95;;;;;;;16.49;76.92;102508.34;5031281;28;20022;-86
2022/08/10 00:38:53;;;;;;;1.80;1.70;;;;;;;16.59;76.56;102515.72;5041540;28;20095;-84
2022/08/10 00:41:18;;;;;;;4.80;1.70;;;;;;;16.50;76.34;102512.69;5045124;28;20108;-84
2022/08/10 00:43:43;;;;;;;5.03;2.10;;;;;;;16.48;77.01;102522.13;5030441;28;20037;-84
2022/08/10 00:46:08;;;;;;;2.60;1.97;;;;;;;16.43;77.46;102513.97;5040958;28;20025;-82
2022/08/10 00:48:34;;;;;;;4.97;1.70;;;;;;;16.38;77.64;102512.03;5051275;28;20020;-82
2022/08/10 00:51:00;;;;;;;2.30;2.00;;;;;;;16.36;78.14;102519.59;5037621;28;20033;-83
2022/08/10 00:53:27;;;;;;;3.60;2.13;;;;;;;16.35;78.66;102512.53;5030608;28;20025;-83
2022/08/10 00:55:52;;;;;;;3.67;1.63;;;;;;;16.29;78.15;102513.56;5036998;28;20530;-83
2022/08/10 00:58:18;;;;;;;3.80;2.20;;;;;;;16.21;78.93;102514.81;5048693;28;20119;-85
2022/08/10 01:00:46;;;;;;;1.70;1.60;;;;;;;16.16;78.63;102510.19;5042947;28;20025;-84
2022/08/10 01:03:11;;;;;;;2.38;1.95;;;;;;;16.17;79.06;102519.94;5040662;28;20104;-85
2022/08/10 01:05:44;;;;;;;3.27;2.00;;;;;;;16.07;79.73;102514.41;5030687;28;20100;-84
2022/08/10 01:08:21;;;;;;;2.50;2.05;;;;;;;16.05;78.23;102509.25;5030776;28;20075;-85
2022/08/10 01:10:56;;;;;;;2.65;2.00;;;;;;;16.02;79.77;102520.59;5028023;28;20035;-84
2022/08/10 01:13:39;;;;;;;2.65;2.10;;;;;;;15.99;78.55;102512.16;5031309;28;20065;-84
2022/08/10 01:16:13;;;;;;;2.50;2.30;;;;;;;15.96;79.28;102516.22;5029915;28;20116;-84
2022/08/10 01:18:47;;;;;;;4.32;2.58;;;;;;;15.93;80.26;102505.06;5027839;28;20528;-84
2022/08/10 01:21:52;;;;;;;5.18;2.20;;;;;;;15.84;78.50;102494.69;5029453;28;20026;-84
2022/08/10 01:24:35;;;;;;;2.30;1.93;;;;;;;15.83;78.76;102503.84;5032164;28;20481;-84
2022/08/10 01:27:20;;;;;;;2.57;2.30;;;;;;;15.79;79.87;102505.44;5043035;28;20312;-84
2022/08/10 01:30:01;;;;;;;2.80;2.33;;;;;;;15.75;81.26;102505.13;5027775;28;20029;-84
2022/08/10 01:32:36;;;;;;;3.05;2.50;;;;;;;15.67;81.04;102493.94;5010276;28;20433;-84
2022/08/10 01:35:13;;;;;;;2.63;2.30;;;;;;;15.63;80.74;102500.91;5010528;28;20409;-84
2022/08/10 01:37:55;;;;;;;7.03;2.30;;;;;;;15.67;80.52;102502.84;5030625;28;20056;-84
2022/08/10 01:40:24;;;;;;;3.03;2.42;;;;;;;15.57;83.15;102500.84;5028348;28;20492;-84
2022/08/10 01:42:51;;;;;;;3.35;2.85;;;;;;;15.49;82.63;102493.19;5030483;28;20104;-84
2022/08/10 01:45:20;;;;;;;3.20;2.58;;;;;;;15.56;82.64;102512.69;5029823;28;20079;-84
2022/08/10 01:51:00;;;;;;;4.67;2.80;;;;;;;15.45;82.15;102502.84;5029243;28;20048;-84
2022/08/10 01:53:33;;;;;;;4.93;3.13;;;;;;;15.45;82.84;102505.53;5036606;28;20865;-84
2022/08/10 01:55:59;;;;;;;3.42;2.83;;;;;;;15.45;82.79;102497.44;5049015;28;20047;-84
2022/08/10 01:58:26;;;;;;;3.35;2.78;;;;;;;15.41;84.18;102504.41;5049650;28;20066;-84
2022/08/10 02:00:54;;;;;;;2.72;2.53;;;;;;;15.38;83.03;102500.31;5041149;28;20025;-84
2022/08/10 02:03:23;;;;;;;4.90;3.10;;;;;;;15.28;84.47;102503.72;5048942;28;20116;-84
2022/08/10 02:05:53;;;;;;;5.95;2.60;;;;;;;15.34;83.49;102504.59;5049142;28;20093;-84
2022/08/10 02:08:21;;;;;;;4.05;2.90;;;;;;;15.29;83.39;102510.75;5049530;28;20102;-84
2022/08/10 02:10:48;;;;;;;4.28;3.03;;;;;;;15.26;83.50;102503.13;5042182;28;20128;-85
2022/08/10 02:13:16;;;;;;;3.30;2.97;;;;;;;15.24;83.50;102505.25;5050824;28;20024;-84
2022/08/10 02:15:43;;;;;;;4.87;2.93;;;;;;;15.18;84.35;102506.25;5050774;28;20021;-84
2022/08/10 02:18:11;;;;;;;2.90;2.70;;;;;;;15.15;83.26;102495.97;5050282;28;20260;-84
2022/08/10 02:20:42;;;;;;;4.40;2.67;;;;;;;15.16;84.29;102502.16;5043385;28;20473;-84
2022/08/10 02:23:14;;;;;;;2.75;2.55;;;;;;;15.13;83.70;102487.28;5050210;28;20040;-84
2022/08/10 02:25:41;;;;;;;2.85;2.60;;;;;;;15.10;83.34;102485.09;5010069;28;20033;-84
2022/08/10 02:28:07;;;;;;;4.88;2.75;;;;;;;15.13;83.91;102492.69;5024470;28;20021;-84
2022/08/10 02:30:35;;;;;;;3.15;2.67;;;;;;;15.05;84.04;102495.78;5041693;28;20029;-84
2022/08/10 02:33:02;;;;;;;4.00;2.70;;;;;;;14.94;84.13;102482.16;5048215;28;20381;-84
2022/08/10 02:35:28;;;;;;;4.32;2.85;;;;;;;15.00;84.69;102501.94;5049996;28;20148;-84
2022/08/10 02:37:59;;;;;;;6.35;3.15;;;;;;;14.98;84.24;102494.06;5049393;28;20396;-84
2022/08/10 02:40:27;;;;;;;3.37;3.00;;;;;;;14.93;84.61;102488.63;5043619;28;20021;-84
2022/08/10 02:43:08;;;;;;;4.27;3.03;;;;;;;14.90;84.01;102491.81;5028841;28;20300;-84
2022/08/10 02:45:51;;;;;;;3.55;2.72;;;;;;;14.83;84.52;102496.53;5031824;28;20021;-84
2022/08/10 02:48:50;;;;;;;4.18;3.00;;;;;;;14.78;84.00;102491.09;5047509;28;20065;-84
2022/08/10 02:51:30;;;;;;;2.88;2.60;;;;;;;14.69;84.82;102488.78;5038022;28;20060;-84
2022/08/10 02:54:02;;;;;;;3.25;2.95;;;;;;;14.74;85.58;102484.53;5049913;28;20059;-84
2022/08/10 02:56:35;;;;;;;3.50;3.08;;;;;;;14.72;86.04;102484.75;5047184;28;20036;-84
2022/08/10 02:59:12;;;;;;;6.28;3.00;;;;;;;14.69;85.88;102480.69;5046372;28;20029;-84
2022/08/10 03:01:43;;;;;;;3.08;2.78;;;;;;;14.63;86.48;102467.34;5040938;28;20067;-84
2022/08/10 03:04:21;;;;;;;3.22;2.92;;;;;;;14.59;85.97;102467.03;5049485;28;20047;-84
2022/08/10 03:06:55;;;;;;;5.57;3.20;;;;;;;14.60;87.00;102474.06;5032109;28;20393;-84
2022/08/10 03:09:22;;;;;;;6.17;3.20;;;;;;;14.52;88.27;102469.03;5029893;28;20334;-84
2022/08/10 03:11:49;;;;;;;4.15;3.08;;;;;;;14.50;88.13;102457.69;5034994;28;20535;-85
2022/08/10 03:14:16;;;;;;;4.65;3.50;;;;;;;14.52;88.14;102474.44;5049649;28;20045;-84
2022/08/10 03:16:45;;;;;;;4.50;3.08;;;;;;;14.45;88.02;102460.28;5052205;28;20040;-84
2022/08/10 03:19:13;;;;;;;3.38;3.00;;;;;;;14.49;87.59;102461.44;5052897;28;20623;-84
2022/08/10 03:21:39;;;;;;;3.65;3.10;;;;;;;14.45;87.35;102463.81;5044340;28;20028;-84
2022/08/10 03:24:08;;;;;;;3.30;2.85;;;;;;;14.42;87.88;102453.50;5050592;28;20042;-84
2022/08/10 03:26:35;;;;;;;3.70;3.17;;;;;;;14.37;88.96;102458.81;5052868;28;20033;-84
2022/08/10 03:29:03;;;;;;;3.70;3.30;;;;;;;14.43;88.64;102470.50;5052922;28;20036;-84
2022/08/10 03:31:31;;;;;;;7.47;3.50;;;;;;;14.41;88.71;102464.56;5044027;28;20021;-84
2022/08/10 03:33:59;;;;;;;4.10;3.70;;;;;;;14.41;89.17;102465.34;5031878;28;20307;-84
2022/08/10 03:36:24;;;;;;;6.00;3.60;;;;;;;14.32;89.89;102462.25;5031351;28;20400;-84
2022/08/10 03:38:52;;;;;;;4.53;3.35;;;;;;;14.28;88.74;102462.97;5032744;28;20040;-84
2022/08/10 03:41:24;;;;;;;3.73;3.43;;;;;;;14.28;90.20;102466.47;5034587;28;20028;-84
2022/08/10 03:43:51;;;;;;;4.60;3.37;;;;;;;14.20;90.08;102464.19;5042373;28;20300;-84
2022/08/10 03:46:20;;;;;;;5.25;3.38;;;;;;;14.16;89.46;102463.03;5032580;28;20064;-84
2022/08/10 03:48:47;;;;;;;6.00;3.40;;;;;;;14.13;89.53;102468.91;5032272;28;20034;-85
2022/08/10 03:51:14;;;;;;;4.85;3.50;;;;;;;14.18;89.99;102474.41;5030984;28;20072;-84
2022/08/10 03:53:40;;;;;;;5.55;3.75;;;;;;;14.15;90.21;102477.56;5048889;28;20484;-84
2022/08/10 03:56:06;;;;;;;4.72;3.63;;;;;;;14.09;90.16;102461.28;5051787;28;20032;-84
2022/08/10 03:58:31;;;;;;;4.70;3.97;;;;;;;14.11;91.01;102479.09;5052004;28;20035;-84
2022/08/10 04:00:58;;;;;;;4.77;3.90;;;;;;;14.06;91.85;102480.63;5038906;28;20307;-84
2022/08/10 04:03:24;;;;;;;4.85;4.00;;;;;;;14.02;90.97;102471.41;5031611;28;20473;-84
2022/08/10 04:05:49;;;;;;;3.93;3.43;;;;;;;13.98;90.54;102470.25;5031757;28;20036;-83
2022/08/10 04:08:15;;;;;;;3.97;3.57;;;;;;;14.05;90.40;102479.03;5032210;28;20419;-83
2022/08/10 04:10:40;;;;;;;5.03;4.25;;;;;;;14.03;91.24;102474.91;5030721;28;20520;-84
2022/08/10 04:13:06;;;;;;;4.37;3.97;;;;;;;13.96;90.34;102466.97;5049141;28;20029;-84
2022/08/10 04:15:31;;;;;;;4.57;4.10;;;;;;;13.95;90.29;102467.25;5051655;28;20385;-84
2022/08/10 04:17:58;;;;;;;4.10;3.57;;;;;;;13.94;90.61;102461.00;5051864;28;20079;-84
2022/08/10 04:20:39;;;;;;;6.80;3.80;;;;;;;13.93;90.16;102470.16;5047192;28;20025;-84
2022/08/10 04:23:12;;;;;;;6.07;3.90;;;;;;;13.92;92.22;102469.34;5048304;28;20047;-84
2022/08/10 04:25:39;;;;;;;6.65;3.83;;;;;;;13.89;92.63;102469.00;5051340;28;20555;-84
2022/08/10 04:28:06;;;;;;;4.75;4.28;;;;;;;13.90;91.68;102481.41;5050417;28;20039;-84
2022/08/10 04:30:34;;;;;;;5.32;4.43;;;;;;;13.95;92.46;102469.94;5040384;28;20113;-84
2022/08/10 04:33:02;;;;;;;7.25;4.30;;;;;;;13.99;92.05;102481.84;5029680;28;20032;-84
2022/08/10 04:35:29;;;;;;;5.90;4.15;;;;;;;14.02;92.40;102484.06;5030912;28;20029;-84
2022/08/10 04:37:56;;;;;;;7.45;5.00;;;;;;;14.01;92.43;102483.25;5031767;28;20033;-84
2022/08/10 04:40:22;;;;;;;5.00;4.50;;;;;;;13.96;93.04;102472.38;5029816;28;20041;-83
2022/08/10 04:42:47;;;;;;;7.57;4.30;;;;;;;14.01;92.93;102485.97;5044735;28;20295;-84
2022/08/10 04:45:13;;;;;;;8.20;4.00;;;;;;;14.03;91.73;102483.84;5049927;28;20064;-84
2022/08/10 04:47:39;;;;;;;8.20;4.80;;;;;;;14.02;92.70;102486.75;5050447;28;20353;-83
2022/08/10 04:50:05;;;;;;;5.15;4.55;;;;;;;13.99;92.43;102471.91;5049144;28;20079;-84
2022/08/10 04:52:30;;;;;;;7.33;4.23;;;;;;;14.07;93.40;102482.28;5031402;28;20029;-83
2022/08/10 04:54:56;;;;;;;8.40;5.23;;;;;;;14.07;93.82;102471.50;5030269;28;20652;-84
2022/08/10 04:57:21;;;;;;;7.40;5.27;;;;;;;14.05;94.17;102470.94;5031175;28;20104;-83
2022/08/10 04:59:47;;;;;;;5.05;4.50;;;;;;;14.08;93.22;102475.03;5029117;28;20026;-85
2022/08/10 05:02:13;;;;;;;6.33;4.40;;;;;;;14.11;92.55;102469.16;5030536;28;20590;-84
2022/08/10 05:04:38;;;;;;;6.90;4.53;;;;;;;14.18;92.40;102477.09;5029792;28;20615;-84
2022/08/10 05:07:14;;;;;;;7.00;4.67;;;;;;;14.22;93.01;102473.66;5033635;28;20408;-84
2022/08/10 05:09:41;;;;;;;7.85;5.28;;;;;;;14.30;92.25;102468.94;5029284;28;20054;-84
2022/08/10 05:12:07;;;;;;;5.15;4.65;;;;;;;14.37;91.46;102475.81;5030567;28;20108;-84
2022/08/10 05:14:33;;;;;;;7.47;4.97;;;;;;;14.43;92.12;102470.50;5030677;28;20159;-84
2022/08/10 05:16:59;;;;;;;5.85;4.45;;;;;;;14.51;91.57;102470.09;5030115;28;20025;-84
2022/08/10 05:19:25;;;;;;;6.40;4.95;;;;;;;14.57;91.19;102473.69;5033157;28;20044;-84
2022/08/10 05:21:50;;;;;;;6.57;5.53;;;;;;;14.67;91.20;102468.50;5033067;28;20025;-81
2022/08/10 05:24:16;;;;;;;7.20;5.20;;;;;;;15.14;89.79;102473.53;5050902;28;20318;-84
2022/08/10 05:26:41;;;;;;;7.53;5.20;;;;;;;15.73;88.05;102476.69;5030946;28;20044;-85
2022/08/10 05:29:07;;;;;;;7.00;5.00;;;;;;;16.43;85.19;102482.31;5030967;28;20020;-84
2022/08/10 05:31:32;;;;;;;9.93;5.40;;;;;;;16.95;81.94;102485.47;5033106;28;20480;-84
2022/08/10 05:33:58;;;;;;;7.27;5.10;;;;;;;17.17;80.40;102490.72;5030877;28;20033;-84
2022/08/10 05:36:23;;;;;;;5.78;5.25;;;;;;;17.10;79.53;102490.13;5030080;28;20017;-84
2022/08/10 05:38:49;;;;;;;6.20;5.13;;;;;;;17.12;80.35;102487.19;5029339;28;20108;-83
2022/08/10 05:41:15;;;;;;;7.70;4.93;;;;;;;17.23;79.91;102494.28;5032548;28;20091;-82
2022/08/10 05:43:41;;;;;;;9.32;4.82;;;;;;;17.24;79.86;102491.31;5030171;28;20025;-84
2022/08/10 05:46:06;;;;;;;8.35;5.55;;;;;;;17.19;79.84;102498.59;5030294;28;20072;-82
2022/08/10 05:48:33;;;;;;;9.80;5.37;;;;;;;17.11;79.77;102497.19;5028937;28;20025;-84
2022/08/10 05:50:59;;;;;;;6.43;5.68;;;;;;;16.95;80.06;102496.28;5028218;28;20430;-83
2022/08/10 05:53:24;;;;;;;9.93;5.67;;;;;;;16.80;81.03;102486.94;5028476;28;20084;-82
2022/08/10 05:55:49;;;;;;;7.47;6.07;;;;;;;16.63;82.93;102488.97;5029664;28;20033;-83
2022/08/10 05:58:15;;;;;;;8.10;6.13;;;;;;;16.52;84.08;102489.97;5045453;28;20035;-82
2022/08/10 06:00:41;;;;;;;6.60;5.63;;;;;;;16.54;83.49;102499.44;5047176;28;20021;-84
2022/08/10 06:03:09;;;;;;;6.78;5.95;;;;;;;16.55;83.87;102494.84;5030204;28;20078;-82
2022/08/10 06:05:38;;;;;;;8.23;6.15;;;;;;;16.58;83.34;102503.28;5029906;28;20551;-82
2022/08/10 06:08:16;;;;;;;10.90;6.10;;;;;;;16.59;83.68;102493.28;5040516;28;20033;-82
2022/08/10 06:10:43;;;;;;;8.73;6.40;;;;;;;16.60;84.53;102490.31;5024751;28;20400;-83
2022/08/10 06:15:55;;;;;;;7.53;5.75;;;;;;;16.78;83.18;102493.69;5030014;28;20530;-83
2022/08/10 06:18:23;;;;;;;9.85;6.30;;;;;;;16.83;83.70;102501.03;5033065;28;20021;-83
2022/08/10 06:20:49;;;;;;;7.85;6.38;;;;;;;16.88;83.86;102491.06;5027298;28;20025;-81
2022/08/10 06:23:15;;;;;;;9.02;6.53;;;;;;;16.96;83.80;102484.38;5030495;28;20025;-82
2022/08/10 06:25:41;;;;;;;7.10;6.10;;;;;;;17.17;83.40;102506.97;5035830;28;20055;-82
2022/08/10 06:28:09;;;;;;;7.13;5.87;;;;;;;17.23;82.64;102488.84;5029504;28;20021;-82
2022/08/10 06:30:37;;;;;;;7.28;6.20;;;;;;;17.45;82.04;102501.44;5032354;28;20044;-81
2022/08/10 06:33:03;;;;;;;7.28;5.90;;;;;;;17.51;80.89;102503.09;5023925;28;20072;-83
2022/08/10 06:35:31;;;;;;;7.47;5.65;;;;;;;17.61;80.23;102499.63;5028932;28;20030;-82
2022/08/10 06:38:00;;;;;;;8.70;5.70;;;;;;;17.74;80.50;102499.13;5027899;28;20028;-82
2022/08/10 06:40:31;;;;;;;7.35;5.10;;;;;;;17.85;79.16;102499.97;5028650;28;20038;-81
2022/08/10 06:42:59;;;;;;;7.70;5.38;;;;;;;17.92;79.60;102489.66;5019885;28;20018;-82
2022/08/10 06:45:32;;;;;;;10.00;4.85;;;;;;;17.97;78.55;102491.59;5035051;28;20095;-80
2022/08/10 06:48:12;;;;;;;7.53;5.55;;;;;;;18.15;78.25;102503.88;5026255;28;20033;-81
2022/08/10 06:50:46;;;;;;;6.67;5.03;;;;;;;18.26;77.59;102502.78;5030114;28;20538;-81
2022/08/10 06:53:16;;;;;;;9.23;5.00;;;;;;;18.31;77.65;102502.81;5033532;28;20268;-81
2022/08/10 06:55:52;;;;;;;6.95;5.10;;;;;;;18.46;77.31;102499.28;5028528;28;20423;-81
2022/08/10 06:58:20;;;;;;;7.15;4.65;;;;;;;18.53;75.51;102498.22;5030288;28;20057;-81
2022/08/10 07:00:46;;;;;;;5.80;4.63;;;;;;;18.61;75.00;102501.19;5028559;28;20052;-83
2022/08/10 07:03:14;;;;;;;6.88;5.45;;;;;;;18.72;76.11;102503.91;5030016;28;20569;-81
2022/08/10 07:05:46;;;;;;;5.40;4.88;;;;;;;18.81;74.99;102510.41;5032974;28;20033;-79
2022/08/10 07:08:16;;;;;;;8.02;5.40;;;;;;;18.83;73.90;102499.28;5041299;28;20029;-81
2022/08/10 07:10:43;;;;;;;6.05;5.00;;;;;;;19.04;74.37;102510.94;5031993;28;20025;-83
2022/08/10 07:13:10;;;;;;;9.63;4.90;;;;;;;19.17;73.46;102513.09;5033032;28;20036;-82
2022/08/10 07:15:36;;;;;;;8.13;4.97;;;;;;;19.30;72.66;102508.19;5036400;28;20036;-82
2022/08/10 07:18:03;;;;;;;6.33;4.57;;;;;;;19.31;71.57;102507.91;5048430;28;20291;-81
2022/08/10 07:20:29;;;;;;;7.88;4.97;;;;;;;19.34;71.14;102511.97;5044439;28;20381;-82
2022/08/10 07:22:56;;;;;;;9.70;4.82;;;;;;;19.40;71.20;102513.56;5033059;28;20083;-80
2022/08/10 07:25:25;;;;;;;8.25;4.43;;;;;;;19.46;70.78;102523.34;5032713;28;20039;-79
2022/08/10 07:27:52;;;;;;;6.28;5.68;;;;;;;19.59;70.44;102524.66;5038972;28;20483;-81
2022/08/10 07:30:17;;;;;;;5.07;4.57;;;;;;;19.70;70.94;102519.16;5029332;28;20435;-81
2022/08/10 07:32:46;;;;;;;7.93;5.20;;;;;;;19.79;70.77;102529.19;5036445;28;20033;-80
2022/08/10 07:35:15;;;;;;;8.38;4.80;;;;;;;19.87;68.63;102521.56;5032623;28;20029;-82
2022/08/10 07:37:45;;;;;;;11.00;5.22;;;;;;;19.90;68.59;102529.19;5032084;28;20025;-80
2022/08/10 07:40:13;;;;;;;9.82;5.03;;;;;;;20.04;69.25;102524.75;5032108;28;20029;-80
2022/08/10 07:42:41;;;;;;;9.40;5.72;;;;;;;20.14;69.21;102526.59;5029861;28;20025;-80
2022/08/10 07:45:07;;;;;;;8.00;5.32;;;;;;;20.22;68.27;102534.16;5038050;28;20043;-82
2022/08/10 07:47:38;;;;;;;7.43;5.22;;;;;;;20.28;67.56;102518.59;5029080;28;20562;-83
2022/08/10 07:50:07;;;;;;;7.03;5.13;;;;;;;20.40;67.19;102526.41;5029591;28;20476;-82
2022/08/10 07:52:36;;;;;;;12.25;4.78;;;;;;;20.51;67.73;102519.81;5030644;28;20484;-82
2022/08/10 07:55:05;;;;;;;5.53;4.80;;;;;;;20.66;67.43;102518.84;5027919;28;20530;-82
2022/08/10 07:57:33;;;;;;;6.00;5.03;;;;;;;20.81;66.41;102522.56;5040074;28;20365;-82
2022/08/10 08:01:38;;;;;;;;;;;;;;;;;;;;;
2022/08/10 08:03:47;;;;;;;7.95;4.78;;;;;;;21.05;64.90;102517.16;4953446;28;20042;-82
2022/08/10 08:06:15;;;;;;;5.70;4.97;;;;;;;21.26;65.13;102527.84;4998415;23;20183;-83
2022/08/10 08:08:43;;;;;;;6.63;4.70;;;;;;;21.38;63.50;102521.97;5071139;28;20029;-82
2022/08/10 08:11:10;;;;;;;6.60;4.80;;;;;;;21.40;63.21;102515.13;5067461;28;20040;-82
2022/08/10 08:13:38;;;;;;;8.40;4.53;;;;;;;21.61;63.50;102521.19;5068155;28;20395;-81
2022/08/10 08:16:05;;;;;;;5.43;4.93;;;;;;;21.71;62.25;102524.88;5067017;28;20291;-81
2022/08/10 08:18:34;;;;;;;7.32;4.68;;;;;;;21.77;61.26;102527.25;5051422;28;20025;-82
2022/08/10 08:20:59;;;;;;;6.75;4.95;;;;;;;21.74;61.73;102524.28;5050872;28;20544;-82
2022/08/10 08:23:27;;;;;;;5.97;4.85;;;;;;;21.81;61.59;102524.75;5051739;28;20143;-81
2022/08/10 08:25:53;;;;;;;7.25;4.90;;;;;;;21.96;61.34;102520.16;5046881;28;20025;-82
2022/08/10 08:28:19;;;;;;;11.30;4.70;;;;;;;22.20;61.13;102525.53;5041395;28;20025;-81
2022/08/10 08:30:46;;;;;;;6.57;4.47;;;;;;;22.30;60.42;102525.41;5047822;28;20025;-81
2022/08/10 08:33:12;;;;;;;5.83;4.20;;;;;;;22.45;59.94;102521.66;5069637;28;20039;-81
2022/08/10 08:35:39;;;;;;;7.90;4.47;;;;;;;22.58;60.18;102525.53;5052354;28;20603;-81
2022/08/10 08:38:05;;;;;;;6.30;4.97;;;;;;;22.72;58.36;102522.84;5048506;28;20041;-81
2022/08/10 08:40:37;;;;;;;6.90;4.47;;;;;;;22.95;58.34;102512.06;5038098;28;20041;-81
2022/08/10 08:43:22;;;;;;;10.82;3.80;;;;;;;23.07;58.61;102520.56;5061252;28;20024;-82
2022/08/10 08:46:13;;;;;;;7.55;4.85;;;;;;;23.17;57.74;102516.03;5041930;28;20028;-81
2022/08/10 08:48:54;;;;;;;6.45;4.53;;;;;;;23.27;56.82;102515.84;5050167;28;20033;-82
2022/08/10 08:52:12;;;;;;;8.70;5.30;;;;;;;23.23;57.32;102521.13;5049238;28;20480;-82
2022/08/10 08:55:11;;;;;;;7.57;4.40;;;;;;;23.52;57.60;102519.19;5035887;28;20293;-81
2022/08/10 08:58:17;;;;;;;7.38;4.32;;;;;;;23.59;56.53;102514.09;5044906;28;20036;-81
2022/08/10 09:01:06;;;;;;;5.10;4.60;;;;;;;23.71;54.39;102527.25;5048852;28;20057;-82
2022/08/10 09:03:53;;;;;;;5.88;4.82;;;;;;;23.81;55.40;102515.28;5032961;28;20508;-81
2022/08/10 09:06:24;;;;;;;6.57;4.03;;;;;;;23.90;54.17;102519.69;5047719;28;20085;-82
2022/08/10 09:09:31;;;;;;;7.70;4.25;;;;;;;23.98;54.21;102514.66;5045213;28;20031;-81
2022/08/10 09:12:41;;;;;;;6.97;4.40;;;;;;;24.07;53.92;102512.78;5060054;28;20517;-82
2022/08/10 09:15:32;;;;;;;5.03;4.20;;;;;;;24.25;53.77;102518.41;5047159;28;20025;-80
2022/08/10 09:18:21;;;;;;;5.07;4.20;;;;;;;24.35;53.92;102502.53;5043189;28;20090;-81
2022/08/10 09:21:08;;;;;;;6.83;4.33;;;;;;;24.62;52.58;102506.25;5052748;28;20496;-81
2022/08/10 09:23:42;;;;;;;7.63;3.90;;;;;;;24.79;51.55;102500.06;5046823;28;20283;-81
2022/08/10 09:26:19;;;;;;;7.68;4.30;;;;;;;25.08;50.11;102500.66;5050158;28;20060;-81
2022/08/10 09:28:45;;;;;;;5.30;3.80;;;;;;;25.23;50.11;102491.19;5059479;28;20033;-82
2022/08/10 09:31:11;;;;;;;6.82;4.15;;;;;;;25.49;49.66;102499.53;5037842;28;20037;-82
2022/08/10 09:34:04;;;;;;;5.67;3.60;;;;;;;25.67;50.24;102494.84;5030443;28;20412;-82
2022/08/10 09:36:53;;;;;;;8.70;4.03;;;;;;;25.87;48.65;102481.63;5037336;28;20398;-82
2022/08/10 09:39:47;;;;;;;6.63;3.65;;;;;;;25.88;47.78;102488.72;5052611;28;20042;-82
2022/08/10 09:42:21;;;;;;;5.38;3.83;;;;;;;25.91;45.69;102481.81;5038998;28;20091;-82
2022/08/10 09:45:00;;;;;;;7.22;4.05;;;;;;;25.98;48.40;102477.44;5037906;28;20105;-82
2022/08/10 09:48:01;;;;;;;5.13;3.08;;;;;;;26.04;48.01;102486.31;5034359;28;20496;-83
2022/08/10 09:50:38;;;;;;;4.00;3.38;;;;;;;26.27;47.48;102481.47;5023925;28;20060;-81
2022/08/10 09:53:20;;;;;;;4.00;3.05;;;;;;;26.53;45.79;102479.78;5042378;28;20029;-82
2022/08/10 09:55:55;;;;;;;5.70;3.00;;;;;;;26.67;46.17;102474.06;5050531;28;20032;-80
2022/08/10 09:58:38;;;;;;;7.47;3.05;;;;;;;26.81;43.53;102473.91;5056113;28;20026;-82
2022/08/10 10:01:26;;;;;;;5.88;3.25;;;;;;;26.96;45.23;102470.59;5057712;28;20039;-83
2022/08/10 10:04:17;;;;;;;7.10;3.40;;;;;;;27.01;44.75;102470.41;5050626;28;20036;-84
2022/08/10 10:07:06;;;;;;;6.55;3.30;;;;;;;27.12;43.62;102465.31;5043950;28;20080;-83
2022/08/10 10:09:38;;;;;;;5.47;3.30;;;;;;;27.21;43.24;102466.09;5058194;28;20128;-83
2022/08/10 10:12:26;;;;;;;8.35;3.60;;;;;;;27.29;42.88;102455.38;5035305;28;20115;-83
2022/08/10 10:17:36;;;;;;;4.70;2.70;;;;;;;27.40;42.57;102444.75;5133727;22;20253;-83
2022/08/10 10:20:14;;;;;;;5.07;3.03;;;;;;;27.68;41.55;102453.28;5067932;28;20044;-83
2022/08/10 10:23:00;;;;;;;6.63;3.10;;;;;;;27.87;39.95;102447.31;5066928;28;20024;-82
2022/08/10 10:25:38;;;;;;;6.63;3.03;;;;;;;28.16;40.67;102442.84;5055259;28;20390;-83
2022/08/10 10:28:21;;;;;;;4.97;3.00;;;;;;;28.30;40.33;102437.00;5051468;28;20380;-86
2022/08/10 10:30:49;;;;;;;8.57;3.00;;;;;;;28.31;38.54;102433.13;5051003;28;20305;-86
2022/08/10 10:33:35;;;;;;;8.10;2.80;;;;;;;28.37;37.02;102441.97;5047110;28;20385;-86
2022/08/10 10:36:03;;;;;;;4.35;3.00;;;;;;;28.36;36.00;102430.16;5054149;28;20037;-85
2022/08/10 10:38:34;;;;;;;8.30;3.10;;;;;;;28.46;36.92;102431.66;5054628;28;20052;-85
2022/08/10 10:41:27;;;;;;;6.75;3.00;;;;;;;28.51;37.20;102428.66;5054703;28;20365;-85
2022/08/10 10:44:33;;;;;;;8.23;2.70;;;;;;;28.59;37.69;102432.44;5050338;28;20029;-84
2022/08/10 10:47:45;;;;;;;7.70;3.10;;;;;;;28.68;36.03;102415.78;5037354;28;20048;-86
2022/08/10 10:50:18;;;;;;;4.22;2.97;;;;;;;28.67;36.66;102419.69;5039585;28;20029;-86
2022/08/10 10:52:58;;;;;;;6.03;3.33;;;;;;;28.92;36.15;102426.06;5050740;28;20061;-85
2022/08/10 10:55:46;;;;;;;7.23;2.80;;;;;;;29.07;35.96;102410.72;5034308;28;20483;-85
2022/08/10 10:58:27;;;;;;;5.87;3.27;;;;;;;29.00;35.05;102410.53;5049916;28;20365;-85
2022/08/10 11:01:24;;;;;;;7.20;3.10;;;;;;;28.96;34.86;102402.13;5046849;28;20039;-85
2022/08/10 11:04:05;;;;;;;5.38;3.20;;;;;;;29.01;35.14;102401.09;5051542;28;20126;-85
2022/08/10 11:06:50;;;;;;;5.05;2.78;;;;;;;29.16;35.33;102397.63;5051588;28;20040;-85
2022/08/10 11:09:31;;;;;;;5.10;2.97;;;;;;;29.30;35.15;102399.19;5047269;28;20122;-85
2022/08/10 11:12:02;;;;;;;7.35;3.08;;;;;;;29.27;34.46;102389.66;5040766;28;20056;-85
2022/08/10 11:14:37;;;;;;;6.15;3.40;;;;;;;29.24;34.53;102395.06;5052308;28;20043;-85
2022/08/10 11:17:30;;;;;;;3.90;3.00;;;;;;;29.26;35.00;102393.56;5040774;28;20029;-85
2022/08/10 11:20:23;;;;;;;4.93;3.13;;;;;;;29.41;34.72;102394.81;5048536;28;20111;-85
2022/08/10 11:23:13;;;;;;;3.37;3.07;;;;;;;29.56;34.10;102386.94;5051572;28;20029;-86
2022/08/10 11:25:45;;;;;;;4.20;3.23;;;;;;;29.63;32.82;102378.84;5051135;28;20409;-85
2022/08/10 11:28:20;;;;;;;6.50;2.70;;;;;;;29.63;32.42;102376.06;5051552;28;20029;-85
2022/08/10 11:30:57;;;;;;;4.45;3.13;;;;;;;29.81;33.77;102373.00;5049832;28;20108;-85
2022/08/10 11:33:45;;;;;;;5.63;2.92;;;;;;;29.85;33.79;102382.19;5052205;28;20025;-84
2022/08/10 11:36:23;;;;;;;6.32;2.85;;;;;;;29.93;33.15;102386.75;5042436;28;20079;-85
2022/08/10 11:39:09;;;;;;;3.40;3.10;;;;;;;29.84;32.86;102386.09;5052842;28;20053;-85
2022/08/10 11:41:51;;;;;;;4.55;3.10;;;;;;;29.99;32.58;102376.28;5046255;28;20068;-84
2022/08/10 11:44:25;;;;;;;6.63;3.17;;;;;;;30.02;32.90;102373.59;5050998;28;20064;-84
2022/08/10 11:46:56;;;;;;;11.18;3.05;;;;;;;30.06;31.81;102374.50;5051151;28;20105;-84
2022/08/10 11:49:30;;;;;;;3.07;2.67;;;;;;;30.23;32.63;102367.00;5051287;28;20025;-84
2022/08/10 11:52:02;;;;;;;3.50;3.13;;;;;;;30.09;31.65;102369.41;5050669;28;20348;-85
2022/08/10 11:54:42;;;;;;;4.72;3.00;;;;;;;30.18;32.03;102370.03;5048351;28;20033;-85
2022/08/10 11:57:08;;;;;;;6.22;3.33;;;;;;;30.17;30.67;102357.38;5051118;28;20045;-84
2022/08/10 12:02:22;;;;;;;4.30;3.20;;;;;;;30.51;31.50;102368.84;5049852;28;20534;-84
2022/08/10 12:04:59;;;;;;;7.25;2.83;;;;;;;30.55;31.99;102355.13;5037794;28;20560;-85